sensor_id;sensor_type;location;lat;lon;timestamp;P1;durP1;ratioP1;P2;durP2;ratioP2
63406;SDS011;49543;45.892;10.838;2023-04-09T09:17:52;15.45;;;12.05;;
63406;SDS011;49543;45.892;10.838;2023-04-09T09:20:19;15.88;;;12.55;;
63406;SDS011;49543;45.892;10.838;2023-04-09T09:22:50;15.23;;;11.82;;
63406;SDS011;49543;45.892;10.838;2023-04-09T09:25:16;18.10;;;12.63;;
63406;SDS011;49543;45.892;10.838;2023-04-09T09:27:42;13.68;;;11.80;;
63406;SDS011;49543;45.892;10.838;2023-04-09T19:36:35;4.47;;;4.07;;
63406;SDS011;49543;45.892;10.838;2023-04-09T19:39:01;4.82;;;4.40;;
63406;SDS011;49543;45.892;10.838;2023-04-09T19:41:27;4.72;;;4.32;;
63406;SDS011;49543;45.892;10.838;2023-04-09T19:43:53;4.93;;;4.22;;
63406;SDS011;49543;45.892;10.838;2023-04-09T19:46:19;4.35;;;3.97;;
63406;SDS011;49543;45.892;10.838;2023-04-09T19:48:45;4.72;;;4.10;;
63406;SDS011;49543;45.892;10.838;2023-04-09T19:51:17;4.75;;;4.10;;
63406;SDS011;49543;45.892;10.838;2023-04-09T19:53:44;4.80;;;4.38;;
63406;SDS011;49543;45.892;10.838;2023-04-09T19:56:10;4.40;;;4.00;;
63406;SDS011;49543;45.892;10.838;2023-04-09T19:58:36;4.65;;;4.22;;
63406;SDS011;49543;45.892;10.838;2023-04-09T20:01:02;5.22;;;4.43;;
63406;SDS011;49543;45.892;10.838;2023-04-09T20:03:27;4.47;;;4.07;;
63406;SDS011;49543;45.892;10.838;2023-04-09T20:05:55;4.50;;;4.10;;
63406;SDS011;49543;45.892;10.838;2023-04-09T20:08:21;4.43;;;4.00;;
63406;SDS011;49543;45.892;10.838;2023-04-09T20:10:47;4.40;;;4.00;;
63406;SDS011;49543;45.892;10.838;2023-04-09T20:13:12;4.43;;;4.03;;
63406;SDS011;49543;45.892;10.838;2023-04-09T20:15:38;4.25;;;3.85;;
63406;SDS011;49543;45.892;10.838;2023-04-09T20:18:03;3.90;;;3.60;;
63406;SDS011;49543;45.892;10.838;2023-04-09T20:20:29;4.25;;;3.95;;
63406;SDS011;49543;45.892;10.838;2023-04-09T20:22:54;4.20;;;3.78;;
63406;SDS011;49543;45.892;10.838;2023-04-09T20:25:20;4.10;;;3.70;;
63406;SDS011;49543;45.892;10.838;2023-04-09T20:27:46;4.05;;;3.65;;
63406;SDS011;49543;45.892;10.838;2023-04-09T20:30:12;7.18;;;5.95;;
63406;SDS011;49543;45.892;10.838;2023-04-09T20:32:38;8.40;;;7.00;;
63406;SDS011;49543;45.892;10.838;2023-04-09T20:35:05;11.20;;;8.93;;
63406;SDS011;49543;45.892;10.838;2023-04-09T20:37:32;7.32;;;6.57;;
63406;SDS011;49543;45.892;10.838;2023-04-09T20:39:58;5.53;;;5.03;;
63406;SDS011;49543;45.892;10.838;2023-04-09T20:42:24;4.90;;;4.50;;
63406;SDS011;49543;45.892;10.838;2023-04-09T20:44:50;5.00;;;4.60;;
63406;SDS011;49543;45.892;10.838;2023-04-09T20:47:15;4.78;;;4.38;;
63406;SDS011;49543;45.892;10.838;2023-04-09T20:49:41;4.70;;;4.30;;
63406;SDS011;49543;45.892;10.838;2023-04-09T20:52:07;4.95;;;4.03;;
63406;SDS011;49543;45.892;10.838;2023-04-09T20:54:33;4.55;;;3.83;;
63406;SDS011;49543;45.892;10.838;2023-04-09T20:56:58;4.32;;;3.92;;
63406;SDS011;49543;45.892;10.838;2023-04-09T20:59:25;4.55;;;4.15;;
63406;SDS011;49543;45.892;10.838;2023-04-09T21:01:51;4.70;;;4.20;;
63406;SDS011;49543;45.892;10.838;2023-04-09T21:04:19;3.83;;;3.53;;
63406;SDS011;49543;45.892;10.838;2023-04-09T21:06:45;4.43;;;4.03;;
63406;SDS011;49543;45.892;10.838;2023-04-09T21:09:11;3.80;;;3.50;;
63406;SDS011;49543;45.892;10.838;2023-04-09T21:11:37;4.65;;;4.25;;
63406;SDS011;49543;45.892;10.838;2023-04-09T21:14:02;4.90;;;4.40;;
63406;SDS011;49543;45.892;10.838;2023-04-09T21:16:30;4.32;;;3.78;;
63406;SDS011;49543;45.892;10.838;2023-04-09T21:18:57;4.47;;;3.85;;
63406;SDS011;49543;45.892;10.838;2023-04-09T21:21:22;4.38;;;3.92;;
63406;SDS011;49543;45.892;10.838;2023-04-09T21:23:51;4.47;;;4.07;;
63406;SDS011;49543;45.892;10.838;2023-04-09T21:26:16;4.90;;;4.43;;
63406;SDS011;49543;45.892;10.838;2023-04-09T21:28:42;4.28;;;3.88;;
63406;SDS011;49543;45.892;10.838;2023-04-09T21:31:08;5.20;;;4.70;;
63406;SDS011;49543;45.892;10.838;2023-04-09T21:33:35;6.05;;;5.45;;
63406;SDS011;49543;45.892;10.838;2023-04-09T21:36:00;5.57;;;5.10;;
63406;SDS011;49543;45.892;10.838;2023-04-09T21:38:28;4.47;;;4.07;;
63406;SDS011;49543;45.892;10.838;2023-04-09T21:40:53;4.20;;;3.85;;
63406;SDS011;49543;45.892;10.838;2023-04-09T21:43:19;4.30;;;3.92;;
63406;SDS011;49543;45.892;10.838;2023-04-09T21:45:44;4.10;;;3.70;;
63406;SDS011;49543;45.892;10.838;2023-04-09T21:48:10;4.30;;;3.90;;
63406;SDS011;49543;45.892;10.838;2023-04-09T21:50:36;4.00;;;3.60;;
63406;SDS011;49543;45.892;10.838;2023-04-09T21:53:01;4.30;;;3.90;;
63406;SDS011;49543;45.892;10.838;2023-04-09T21:55:27;4.13;;;3.72;;
63406;SDS011;49543;45.892;10.838;2023-04-09T21:57:52;3.95;;;3.65;;
